Time;durP1;ratioP1;P1;durP2;ratioP2;P2;SDS_P1;SDS_P2;PMS_P1;PMS_P2;Temp;Humidity;BMP_temperature;BMP_pressure;BME280_temperature;BME280_humidity;BME280_pressure;Samples;Min_cycle;Max_cycle;Signal;HPM_P1;HPM_P2
2023/07/14 00:00:10;;;;;;;7.50;4.30;;;;;;;;;;4982301;28;20385;-61
2023/07/14 00:02:36;;;;;;;7.90;4.45;;;;;;;;;;4987798;28;20077;-61
2023/07/14 00:05:03;;;;;;;8.57;5.05;;;;;;;;;;4988081;28;20038;-61
2023/07/14 00:07:29;;;;;;;5.80;4.30;;;;;;;;;;4987353;28;20117;-61
2023/07/14 00:09:55;;;;;;;9.13;4.88;;;;;;;;;;4987759;28;20676;-61
2023/07/14 00:12:21;;;;;;;9.18;4.65;;;;;;;;;;4986711;28;20472;-61
2023/07/14 00:14:48;;;;;;;8.02;4.75;;;;;;;;;;4986849;28;20046;-61
2023/07/14 00:17:14;;;;;;;7.47;4.20;;;;;;;;;;4983101;28;20109;-61
2023/07/14 00:19:41;;;;;;;8.02;4.72;;;;;;;;;;4988065;28;20057;-61
2023/07/14 00:22:14;;;;;;;7.40;5.28;;;;;;;;;;4987284;28;20049;-62
2023/07/14 00:24:44;;;;;;;7.55;4.97;;;;;;;;;;4988928;28;20082;-61
2023/07/14 00:27:18;;;;;;;8.32;4.85;;;;;;;;;;4999255;28;20062;-61
2023/07/14 00:29:45;;;;;;;10.05;5.32;;;;;;;;;;4984296;28;20037;-61
2023/07/14 00:32:12;;;;;;;4.57;3.90;;;;;;;;;;4980879;28;20034;-61
2023/07/14 00:34:38;;;;;;;6.45;5.05;;;;;;;;;;4973571;28;20475;-61
2023/07/14 00:37:04;;;;;;;8.80;4.93;;;21.20;87.10;;;;;;4983214;28;20042;-61
2023/07/14 00:39:30;;;;;;;8.27;5.63;;;;;;;;;;4985087;28;20061;-61
2023/07/14 00:41:57;;;;;;;12.88;5.63;;;;;;;;;;4987609;28;20130;-61
2023/07/14 00:44:23;;;;;;;9.05;4.93;;;;;;;;;;4988812;28;20060;-62
2023/07/14 00:46:50;;;;;;;6.82;4.57;;;;;;;;;;4984216;28;20144;-62
2023/07/14 00:49:28;;;;;;;6.88;5.40;;;;;;;;;;4989500;28;20096;-61
2023/07/14 00:51:57;;;;;;;6.70;5.03;;;;;;;;;;4985448;28;20038;-61
2023/07/14 00:54:27;;;;;;;11.10;5.20;;;;;;;;;;4985499;28;20104;-62
2023/07/14 00:56:55;;;;;;;9.15;6.45;;;;;;;;;;4985588;28;20121;-62
2023/07/14 00:59:22;;;;;;;9.38;5.30;;;;;;;;;;4986814;28;20096;-61
2023/07/14 01:02:07;;;;;;;10.43;5.45;;;;;;;;;;4996379;28;20099;-61
2023/07/14 01:04:33;;;;;;;10.20;4.75;;;;;;;;;;4984458;28;20113;-61
2023/07/14 01:06:59;;;;;;;7.95;5.82;;;;;;;;;;4986247;28;20046;-61
2023/07/14 01:09:25;;;;;;;7.78;5.53;;;;;;;;;;4982226;28;20045;-61
2023/07/14 01:11:54;;;;;;;9.02;6.38;;;;;;;;;;4998289;28;20035;-61
2023/07/14 01:14:24;;;;;;;8.73;5.65;;;;;;;;;;4974236;28;20078;-61
2023/07/14 01:16:53;;;;;;;7.82;5.38;;;;;;;;;;4981651;28;20057;-61
2023/07/14 01:19:19;;;;;;;8.05;5.35;;;;;;;;;;4985047;28;20050;-61
2023/07/14 01:21:48;;;;;;;7.43;5.07;;;;;;;;;;4975575;28;20527;-61
2023/07/14 01:24:17;;;;;;;7.35;5.28;;;;;;;;;;4982266;28;20057;-61
2023/07/14 01:26:56;;;;;;;9.50;4.85;;;;;;;;;;4987109;28;20185;-61
2023/07/14 01:29:22;;;;;;;9.30;6.03;;;;;;;;;;4982600;28;20045;-61
2023/07/14 01:31:49;;;;;;;8.45;5.80;;;;;;;;;;4975278;28;20123;-61
2023/07/14 01:34:16;;;;;;;9.43;5.93;;;;;;;;;;4985662;28;20038;-61
2023/07/14 01:36:43;;;;;;;6.82;5.00;;;;;;;;;;4986520;28;20050;-61
2023/07/14 01:39:09;;;;;;;8.98;4.75;;;;;;;;;;4978474;28;20125;-61
2023/07/14 01:41:36;;;;;;;7.65;5.72;;;;;;;;;;4986393;28;20084;-61
2023/07/14 01:44:04;;;;;;;7.07;5.10;;;;;;;;;;4981802;28;20054;-61
2023/07/14 01:46:30;;;;;;;8.50;5.50;;;;;;;;;;4983574;28;20038;-61
2023/07/14 01:48:59;;;;;;;11.93;6.10;;;;;;;;;;4983175;28;20049;-61
2023/07/14 01:51:27;;;;;;;9.02;5.78;;;;;;;;;;4985102;28;20133;-61
2023/07/14 01:54:00;;;;;;;10.23;5.28;;;;;;;;;;4983123;28;20046;-61
2023/07/14 01:56:27;;;;;;;7.03;5.43;;;;;;;;;;4987322;28;20047;-61
2023/07/14 01:58:57;;;;;;;8.98;5.55;;;;;;;;;;4983862;28;20046;-61
2023/07/14 02:01:24;;;;;;;9.63;5.70;;;;;;;;;;4994039;28;20107;-61
2023/07/14 02:03:52;;;;;;;7.80;5.00;;;;;;;;;;4977180;28;20071;-61
2023/07/14 02:06:18;;;;;;;9.15;5.65;;;;;;;;;;4983597;28;20037;-61
2023/07/14 02:08:44;;;;;;;9.20;5.93;;;;;;;;;;4975813;28;20046;-61
2023/07/14 02:11:15;;;;;;;7.57;5.97;;;;;;;;;;4986760;28;20193;-61
2023/07/14 02:13:42;;;;;;;9.20;6.18;;;;;;;;;;4980432;28;20038;-60
2023/07/14 02:16:11;;;;;;;7.93;5.43;;;;;;;;;;4984046;28;20045;-61
2023/07/14 02:18:37;;;;;;;9.45;5.50;;;;;;;;;;4982917;28;20497;-61
2023/07/14 02:21:03;;;;;;;6.45;5.72;;;;;;;;;;4989417;28;20548;-61
2023/07/14 02:23:29;;;;;;;6.75;5.03;;;;;;;;;;4979297;28;20060;-62
2023/07/14 02:25:58;;;;;;;13.35;6.80;;;;;;;;;;4999624;28;20050;-61
2023/07/14 02:28:26;;;;;;;7.88;5.15;;;;;;;;;;4979085;28;20408;-60
2023/07/14 02:30:55;;;;;;;7.22;5.05;;;;;;;;;;4994116;28;20070;-61
2023/07/14 02:33:26;;;;;;;6.97;4.93;;;;;;;;;;4986039;28;20507;-61
2023/07/14 02:36:11;;;;;;;7.47;4.88;;;;;;;;;;4984289;28;20050;-61
2023/07/14 02:38:39;;;;;;;5.85;4.30;;;;;;;;;;4984560;28;20476;-60
2023/07/14 02:41:05;;;;;;;7.35;5.68;;;;;;;;;;4981080;28;20042;-61
2023/07/14 02:43:32;;;;;;;6.80;5.30;;;;;;;;;;4982731;28;20030;-61
2023/07/14 02:45:59;;;;;;;8.40;5.88;;;;;;;;;;4986814;28;20050;-61
2023/07/14 02:48:35;;;;;;;10.88;5.45;;;;;;;;;;4979804;28;20050;-61
2023/07/14 02:51:02;;;;;;;7.75;4.88;;;;;;;;;;4982381;28;20520;-61
2023/07/14 02:53:28;;;;;;;7.55;5.35;;;;;;;;;;4983935;28;20042;-61
2023/07/14 02:55:55;;;;;;;8.23;5.47;;;;;;;;;;4982571;28;20061;-61
2023/07/14 02:58:21;;;;;;;6.50;4.82;;;;;;;;;;4982490;28;20274;-61
2023/07/14 03:00:47;;;;;;;9.18;4.75;;;;;;;;;;4980358;28;20042;-61
2023/07/14 03:03:13;;;;;;;9.48;5.68;;;;;;;;;;4978371;28;20053;-60
2023/07/14 03:05:39;;;;;;;7.55;5.50;;;;;;;;;;4980469;28;20145;-61
2023/07/14 03:08:07;;;;;;;10.15;5.43;;;;;;;;;;4980592;28;20116;-61
2023/07/14 03:10:34;;;;;;;10.30;5.38;;;;;;;;;;4982148;28;20112;-60
2023/07/14 03:13:00;;;;;;;7.68;4.90;;;;;;;;;;4982520;28;20097;-60
2023/07/14 03:15:26;;;;;;;10.40;5.50;;;;;;;;;;4988363;28;20044;-60
2023/07/14 03:17:52;;;;;;;10.68;5.40;;;;;;;;;;4989802;28;20088;-61
2023/07/14 03:20:19;;;;;;;6.85;4.70;;;;;;;;;;5001257;28;20038;-61
2023/07/14 03:22:45;;;;;;;9.13;5.65;;;;;;;;;;4983116;28;20077;-61
2023/07/14 03:25:11;;;;;;;13.77;5.40;;;;;;;;;;4984273;28;20468;-61
2023/07/14 03:27:37;;;;;;;8.10;4.68;;;;;;;;;;4984984;28;20050;-61
2023/07/14 03:30:03;;;;;;;10.40;5.03;;;;;;;;;;4989540;28;20030;-61
2023/07/14 03:32:30;;;;;;;9.82;4.53;;;;;;;;;;4985146;28;20540;-61
2023/07/14 03:34:56;;;;;;;10.07;5.40;;;;;;;;;;4979052;28;20129;-61
2023/07/14 03:37:22;;;;;;;6.40;4.28;;;;;;;;;;4987706;28;20084;-60
2023/07/14 03:39:48;;;;;;;6.88;4.50;;;;;;;;;;4983429;28;20050;-61
2023/07/14 03:42:14;;;;;;;7.22;5.07;;;;;;;;;;4978227;28;20053;-60
2023/07/14 03:44:40;;;;;;;8.73;5.20;;;;;;;;;;4968854;28;20047;-60
2023/07/14 03:47:06;;;;;;;8.32;5.00;;;;;;;;;;4986176;28;20472;-60
2023/07/14 03:49:32;;;;;;;9.25;4.85;;;;;;;;;;4981544;28;20485;-61
2023/07/14 03:51:59;;;;;;;6.95;4.75;;;;;;;;;;4978596;28;20046;-61
2023/07/14 03:54:25;;;;;;;8.52;4.60;;;;;;;;;;4984981;28;20113;-61
2023/07/14 03:56:54;;;;;;;7.82;4.53;;;;;;;;;;4985623;28;20052;-61
2023/07/14 03:59:21;;;;;;;9.50;5.72;;;;;;;;;;4979171;28;20121;-61
2023/07/14 04:01:47;;;;;;;9.50;4.97;;;;;;;;;;4991068;28;20081;-61
2023/07/14 04:04:14;;;;;;;10.07;5.43;;;;;;;;;;4984570;28;20441;-61
2023/07/14 04:06:40;;;;;;;8.02;5.32;;;;;;;;;;4982806;28;20046;-60
2023/07/14 04:09:07;;;;;;;7.15;5.45;;;;;;;;;;4985710;28;20500;-61
2023/07/14 04:11:36;;;;;;;7.97;4.43;;;;;;;;;;4996116;28;20101;-61
2023/07/14 04:14:06;;;;;;;7.40;4.40;;;;;;;;;;4983829;28;20537;-61
2023/07/14 04:16:33;;;;;;;6.50;5.03;;;;;;;;;;4980963;28;20129;-61
2023/07/14 04:18:59;;;;;;;6.25;4.45;;;;;;;;;;4979623;28;20042;-61
2023/07/14 04:21:27;;;;;;;6.72;4.70;;;;;;;;;;4986851;28;20475;-61
2023/07/14 04:23:53;;;;;;;9.60;5.38;;;;;;;;;;4981085;28;20074;-61
2023/07/14 04:26:19;;;;;;;7.68;4.55;;;;;;;;;;4982644;28;20046;-61
2023/07/14 04:28:45;;;;;;;6.82;4.32;;;;;;;;;;4984375;28;20069;-60
2023/07/14 04:31:12;;;;;;;7.60;4.40;;;;;;;;;;4965472;28;20102;-61
2023/07/14 04:33:38;;;;;;;8.05;4.25;;;;;;;;;;4984081;28;20096;-61
2023/07/14 04:36:05;;;;;;;10.35;4.78;;;;;;;;;;4983373;28;20428;-61
2023/07/14 04:38:32;;;;;;;7.35;4.75;;;;;;;;;;4982546;28;20313;-61
2023/07/14 04:40:58;;;;;;;4.72;3.85;;;;;;;;;;4988450;28;20073;-61
2023/07/14 04:43:24;;;;;;;6.57;3.85;;;;;;;;;;4989053;28;20100;-61
2023/07/14 04:45:53;;;;;;;6.25;4.40;;;;;;;;;;4982275;28;20981;-61
2023/07/14 04:48:23;;;;;;;7.88;3.85;;;;;;;;;;4984083;28;20038;-61
2023/07/14 04:50:49;;;;;;;5.75;3.72;;;;;;;;;;4978034;28;20140;-61
2023/07/14 04:53:16;;;;;;;8.73;3.85;;;;;;;;;;4991407;28;20044;-61
2023/07/14 04:55:43;;;;;;;9.10;4.30;;;;;;;;;;4972255;28;20044;-61
2023/07/14 04:58:10;;;;;;;7.78;4.85;;;;;;;;;;4972941;28;20062;-61
2023/07/14 05:00:37;;;;;;;7.53;4.18;;;;;;;;;;4971487;28;20178;-61
2023/07/14 05:03:03;;;;;;;5.15;3.33;;;;;;;;;;4972374;28;20043;-61
2023/07/14 05:05:29;;;;;;;6.78;3.45;;;;;;;;;;4979459;28;20129;-61
2023/07/14 05:07:56;;;;;;;8.32;4.03;;;;;;;;;;4981404;28;20465;-60
2023/07/14 05:10:23;;;;;;;6.93;3.53;;;;;;;;;;4977704;28;20420;-62
2023/07/14 05:12:53;;;;;;;8.90;4.40;;;;;;;;;;4970041;28;20039;-62
2023/07/14 05:15:20;;;;;;;6.95;4.20;;;;;;;;;;4976823;28;20257;-62
2023/07/14 05:17:46;;;;;;;7.22;4.22;;;;;;;;;;4975392;28;20073;-62
2023/07/14 05:20:13;;;;;;;10.40;4.28;;;;;;;;;;4969521;28;20062;-62
2023/07/14 05:22:40;;;;;;;6.88;3.90;;;;;;;;;;4979760;28;20062;-62
2023/07/14 05:25:06;;;;;;;11.60;4.50;;;;;;;;;;4977036;28;20042;-62
2023/07/14 05:27:33;;;;;;;10.20;4.10;;;;;;;;;;4982570;28;20258;-62
2023/07/14 05:29:59;;;;;;;7.70;3.80;;;;;;;;;;4976884;28;20347;-62
2023/07/14 05:32:25;;;;;;;9.30;3.88;;;;;;;;;;4976723;28;20041;-62
2023/07/14 05:34:52;;;;;;;6.78;3.83;;;;;;;;;;4983291;28;20038;-62
2023/07/14 05:37:18;;;;;;;9.18;4.43;;;;;;;;;;4976793;28;20046;-63
2023/07/14 05:39:45;;;;;;;6.00;3.40;;;;;;;;;;4981403;28;20567;-61
2023/07/14 05:42:12;;;;;;;10.77;4.15;;;;;;;;;;4983180;28;20522;-61
2023/07/14 05:44:38;;;;;;;8.93;4.28;;;;;;;;;;4978120;28;20419;-61
2023/07/14 05:47:04;;;;;;;7.07;3.30;;;;;;;;;;4969781;28;20042;-61
2023/07/14 05:49:30;;;;;;;5.68;3.40;;;;;;;;;;4981619;28;20690;-60
2023/07/14 05:51:57;;;;;;;7.55;4.30;;;;;;;;;;4978605;28;20060;-60
2023/07/14 05:54:24;;;;;;;6.63;3.25;;;;;;;;;;4971671;28;20046;-61
2023/07/14 05:56:50;;;;;;;8.13;4.45;;;;;;;;;;4972419;28;20042;-61
2023/07/14 05:59:17;;;;;;;8.57;3.70;;;;;;;;;;4969589;28;20546;-61
2023/07/14 06:01:43;;;;;;;8.60;3.42;;;;;;;;;;4996040;28;20074;-60
2023/07/14 06:04:10;;;;;;;7.95;4.05;;;;;;;;;;4949379;28;20932;-60
2023/07/14 06:06:36;;;;;;;7.68;3.92;;;;;;;;;;4972633;28;20048;-61
2023/07/14 06:09:02;;;;;;;7.05;3.65;;;;;;;;;;4973613;28;20035;-61
2023/07/14 06:11:29;;;;;;;7.63;3.53;;;;;;;;;;4981095;28;20046;-61
2023/07/14 06:13:56;;;;;;;9.95;4.38;;;;;;;;;;4978189;28;20045;-61
2023/07/14 06:16:22;;;;;;;9.48;4.20;;;;;;;;;;4975232;28;20054;-62
2023/07/14 06:18:51;;;;;;;5.25;3.50;;;;;;;;;;4979591;28;20047;-62
2023/07/14 06:21:18;;;;;;;7.68;3.95;;;;;;;;;;4981793;28;20065;-61
2023/07/14 06:23:44;;;;;;;6.80;3.50;;;;;;;;;;4972964;28;20408;-61
2023/07/14 06:26:11;;;;;;;7.28;3.22;;;;;;;;;;4980086;28;20113;-61
2023/07/14 06:28:37;;;;;;;6.78;3.92;;;;;;;;;;4976950;28;20042;-61
2023/07/14 06:31:04;;;;;;;5.50;2.92;;;;;;;;;;4977690;28;20489;-62
2023/07/14 06:33:31;;;;;;;10.52;4.05;;;;;;;;;;4979790;28;20500;-62
2023/07/14 06:35:57;;;;;;;8.25;4.07;;;;;;;;;;4980075;28;20038;-61
2023/07/14 06:38:30;;;;;;;9.73;4.30;;;;;;;;;;4969073;28;20046;-62
2023/07/14 06:41:00;;;;;;;7.47;3.72;;;;;;;;;;4970385;28;20424;-61
2023/07/14 06:43:27;;;;;;;5.85;3.38;;;;;;;;;;4959559;28;20539;-61
2023/07/14 06:45:53;;;;;;;7.05;3.75;;;;;;;;;;4963729;28;20038;-62
2023/07/14 06:48:19;;;;;;;6.85;4.18;;;;;;;;;;4970799;28;20046;-61
2023/07/14 06:50:46;;;;;;;7.05;4.22;;;;;;;;;;4977047;28;20046;-62
2023/07/14 06:53:12;;;;;;;7.78;4.45;;;;;;;;;;4973307;28;20422;-62
2023/07/14 06:55:38;;;;;;;8.98;4.18;;;;;;;;;;4982602;28;20042;-61
2023/07/14 06:58:05;;;;;;;9.32;4.82;;;;;;;;;;4984624;28;20098;-62
2023/07/14 07:00:31;;;;;;;7.53;3.75;;;;;;;;;;4986802;28;20478;-61
2023/07/14 07:02:58;;;;;;;7.50;4.10;;;;;;;;;;4966052;28;20278;-62
2023/07/14 07:05:24;;;;;;;6.65;4.05;;;;;;;;;;4977083;28;20065;-62
2023/07/14 07:07:51;;;;;;;8.82;3.97;;;;;;;;;;4978479;28;20039;-61
2023/07/14 07:10:17;;;;;;;6.93;4.20;;;;;;;;;;4975367;28;20131;-62
2023/07/14 07:12:44;;;;;;;7.25;4.38;;;;;;;;;;4981257;28;20039;-62
2023/07/14 07:15:10;;;;;;;7.05;3.92;;;;;;;;;;4979958;28;20170;-62
2023/07/14 07:17:38;;;;;;;8.45;4.97;;;;;;;;;;4976525;28;20105;-62
2023/07/14 07:20:06;;;;;;;11.02;4.75;;;;;;;;;;4979324;28;20035;-62
2023/07/14 07:22:33;;;;;;;9.15;5.05;;;;;;;;;;4990995;28;20039;-61
2023/07/14 07:24:59;;;;;;;13.68;4.85;;;;;;;;;;4977667;28;20108;-62
2023/07/14 07:27:26;;;;;;;8.68;4.63;;;;;;;;;;4984393;28;20070;-61
2023/07/14 07:29:52;;;;;;;10.00;4.45;;;;;;;;;;4982424;28;20144;-61
2023/07/14 07:32:18;;;;;;;12.77;5.68;;;;;;;;;;4981486;28;20045;-61
2023/07/14 07:34:44;;;;;;;8.23;4.45;;;;;;;;;;4979581;28;20038;-61
2023/07/14 07:37:10;;;;;;;9.80;5.03;;;;;;;;;;4974323;28;20184;-61
2023/07/14 07:39:37;;;;;;;11.38;4.63;;;;;;;;;;4976895;28;20162;-61
2023/07/14 07:42:04;;;;;;;9.05;4.38;;;;;;;;;;4983993;28;20042;-61
2023/07/14 07:44:30;;;;;;;11.18;4.82;;;;;;;;;;4984509;28;20035;-61
2023/07/14 07:46:56;;;;;;;7.30;4.35;;;;;;;;;;4980982;28;20087;-61
2023/07/14 07:49:22;;;;;;;10.63;4.88;;;;;;;;;;4980649;28;20050;-61
2023/07/14 07:51:48;;;;;;;7.07;3.97;;;;;;;;;;4973056;28;20668;-61
2023/07/14 07:54:15;;;;;;;7.85;4.63;;;;;;;;;;4956727;28;20070;-61
2023/07/14 07:56:42;;;;;;;8.48;3.83;;;;;;;;;;4980743;28;20056;-61
2023/07/14 07:59:18;;;;;;;8.00;3.95;;;;;;;;;;4978736;28;20050;-61
2023/07/14 08:01:47;;;;;;;6.05;3.40;;;;;;;;;;4978957;28;20039;-61
2023/07/14 08:04:16;;;;;;;6.70;3.03;;;20.20;89.90;;;;;;4977836;28;20050;-61
2023/07/14 08:06:42;;;;;;;8.23;3.50;;;20.40;93.30;;;;;;4976691;28;20118;-61
2023/07/14 08:09:09;;;;;;;7.60;3.05;;;20.40;93.10;;;;;;4985817;28;20467;-62
2023/07/14 08:11:35;;;;;;;5.55;3.10;;;20.50;93.00;;;;;;4983167;28;20038;-61
2023/07/14 08:14:02;;;;;;;4.20;3.25;;;20.50;92.80;;;;;;4994568;28;20074;-61
2023/07/14 08:16:29;;;;;;;5.03;3.25;;;20.50;92.70;;;;;;4976506;28;20150;-61
2023/07/14 08:18:55;;;;;;;7.18;3.50;;;20.60;92.60;;;;;;4982586;28;20137;-61
2023/07/14 08:21:22;;;;;;;6.05;2.85;;;20.70;92.40;;;;;;4977925;28;20377;-61
2023/07/14 08:23:48;;;;;;;4.90;3.88;;;20.70;92.20;;;;;;4988779;28;20105;-61
2023/07/14 08:26:14;;;;;;;5.35;3.28;;;20.70;91.90;;;;;;4980313;28;20084;-61
2023/07/14 08:28:40;;;;;;;4.65;2.50;;;20.70;91.90;;;;;;4961432;28;20043;-61
2023/07/14 08:31:09;;;;;;;6.05;3.55;;;20.80;92.00;;;;;;4980002;28;20219;-61
2023/07/14 08:33:36;;;;;;;5.25;2.90;;;;;;;;;;4978557;28;20073;-60
2023/07/14 08:36:03;;;;;;;7.25;2.83;;;;;;;;;;4983829;28;20517;-60
2023/07/14 08:38:33;;;;;;;7.10;3.55;;;;;;;;;;4976802;28;20158;-60
2023/07/14 08:41:18;;;;;;;6.13;2.70;;;;;;;;;;4983436;28;20077;-60
2023/07/14 08:43:50;;;;;;;5.97;2.45;;;;;;;;;;4981944;28;20270;-61
2023/07/14 08:46:27;;;;;;;5.05;2.65;;;;;;;;;;4979502;28;20042;-61
2023/07/14 08:49:25;;;;;;;4.53;2.40;;;;;;;;;;4981249;28;20077;-60
2023/07/14 08:51:54;;;;;;;5.30;2.63;;;;;;;;;;4998401;28;20061;-61
2023/07/14 08:54:21;;;;;;;6.07;3.03;;;;;;;;;;4982362;28;20525;-61
2023/07/14 08:56:49;;;;;;;6.28;2.63;;;;;;;;;;4984977;28;20354;-61
2023/07/14 08:59:25;;;;;;;5.18;2.78;;;;;;;;;;4974114;28;20053;-60
2023/07/14 09:01:55;;;;;;;4.05;2.20;;;;;;;;;;4979854;28;20473;-61
2023/07/14 09:04:24;;;;;;;4.25;2.60;;;;;;;;;;4978734;28;20057;-62
2023/07/14 09:06:50;;;;;;;5.07;2.72;;;;;;;;;;4982990;28;20112;-61
2023/07/14 09:09:18;;;;;;;4.97;2.78;;;;;;;;;;4979515;28;20038;-61
2023/07/14 09:11:48;;;;;;;6.70;2.40;;;;;;;;;;4977426;28;20253;-61
2023/07/14 09:14:22;;;;;;;6.10;2.60;;;;;;;;;;4979263;28;20563;-61
2023/07/14 09:17:00;;;;;;;5.03;2.47;;;;;;;;;;4977045;28;20042;-61
2023/07/14 09:19:36;;;;;;;4.20;2.70;;;;;;;;;;4978848;28;20069;-61
2023/07/14 09:22:15;;;;;;;4.32;2.72;;;;;;;;;;4982252;28;20754;-60
2023/07/14 09:25:11;;;;;;;3.10;2.08;;;;;;;;;;4976955;28;20047;-61
2023/07/14 09:27:37;;;;;;;5.80;2.95;;;;;;;;;;4985142;28;20514;-61
2023/07/14 09:30:10;;;;;;;5.93;2.80;;;;;;;;;;4981911;28;20132;-61
2023/07/14 09:32:39;;;;;;;5.95;2.85;;;;;;;;;;4978658;28;20121;-61
2023/07/14 09:35:13;;;;;;;4.68;2.83;;;;;;;;;;4989125;28;20060;-61
2023/07/14 09:37:53;;;;;;;6.28;2.20;;;;;;;;;;4981277;28;20137;-61
2023/07/14 09:40:24;;;;;;;3.33;1.90;;;;;;;;;;4980469;28;20133;-61
2023/07/14 09:42:53;;;;;;;10.88;2.92;;;20.90;91.90;;;;;;4978645;28;20053;-61
2023/07/14 09:45:24;;;;;;;5.63;2.83;;;;;;;;;;4983745;28;20459;-60
2023/07/14 09:47:57;;;;;;;3.75;2.25;;;;;;;;;;4978814;28;20277;-61
2023/07/14 09:50:24;;;;;;;6.03;2.78;;;;;;;;;;4977840;28;20552;-61
2023/07/14 09:52:52;;;;;;;4.78;2.42;;;;;;;;;;4980472;28;20042;-61
2023/07/14 09:55:19;;;;;;;4.85;2.65;;;;;;;;;;4979282;28;20046;-61
2023/07/14 09:57:46;;;;;;;7.90;2.45;;;;;;;;;;4980460;28;20035;-61
2023/07/14 10:00:20;;;;;;;6.47;3.22;;;;;;;;;;4976174;28;20125;-60
2023/07/14 10:02:52;;;;;;;4.25;2.58;;;;;;;;;;4976292;28;20329;-60
2023/07/14 10:05:22;;;;;;;4.07;2.63;;;;;;;;;;4976532;28;20050;-61
2023/07/14 10:07:48;;;;;;;6.22;2.42;;;;;;;;;;4985152;28;20057;-61
2023/07/14 10:10:19;;;;;;;5.53;2.20;;;22.70;86.90;;;;;;4974974;28;20034;-61
2023/07/14 10:12:48;;;;;;;3.50;2.33;;;;;;;;;;4978076;28;20453;-61
2023/07/14 10:15:47;;;;;;;4.85;3.10;;;;;;;;;;4973187;28;20050;-61
2023/07/14 10:18:17;;;;;;;6.38;2.35;;;;;;;;;;4979413;28;20172;-61
2023/07/14 10:20:55;;;;;;;5.30;2.53;;;;;;;;;;4971671;28;20496;-61
2023/07/14 10:23:24;;;;;;;4.43;2.60;;;;;;;;;;4981778;28;20121;-61
2023/07/14 10:25:51;;;;;;;3.70;2.20;;;;;;;;;;4988133;28;20038;-61
2023/07/14 10:28:22;;;;;;;5.20;2.85;;;;;;;;;;4982773;28;20259;-61
2023/07/14 10:30:48;;;;;;;6.03;2.67;;;;;;;;;;4971622;28;20046;-60
2023/07/14 10:33:22;;;;;;;4.35;2.50;;;;;;;;;;4982335;28;20100;-61
2023/07/14 10:35:51;;;;;;;5.65;3.08;;;;;;;;;;4981367;28;20096;-61
2023/07/14 10:38:24;;;;;;;7.70;2.50;;;;;;;;;;4978200;28;20050;-61
2023/07/14 10:41:01;;;;;;;4.30;2.30;;;;;;;;;;4976824;28;20046;-61
2023/07/14 10:43:33;;;;;;;4.65;2.63;;;;;;;;;;4980462;28;20057;-61
2023/07/14 10:46:03;;;;;;;7.10;2.92;;;;;;;;;;4957805;28;20204;-61
2023/07/14 10:48:40;;;;;;;5.18;2.13;;;;;;;;;;4978322;28;20042;-61
2023/07/14 10:51:06;;;;;;;4.63;2.75;;;;;;;;;;4974486;28;20031;-61
2023/07/14 10:53:38;;;;;;;5.47;2.50;;;;;;;;;;4972826;28;20165;-61
2023/07/14 10:56:07;;;;;;;5.53;2.53;;;;;;;;;;4987121;28;20133;-61
2023/07/14 10:58:45;;;;;;;5.40;2.80;;;;;;;;;;4979758;28;20050;-62
2023/07/14 11:01:17;;;;;;;6.70;3.30;;;;;;;;;;4958919;28;20154;-61
2023/07/14 11:03:54;;;;;;;5.63;3.35;;;;;;;;;;4969425;28;20503;-61
2023/07/14 11:06:28;;;;;;;4.95;3.33;;;;;;;;;;4966507;28;20050;-60
2023/07/14 11:08:55;;;;;;;6.22;2.50;;;;;;;;;;4976238;28;20038;-61
2023/07/14 11:11:28;;;;;;;6.32;2.92;;;;;;;;;;4969002;28;20041;-61
2023/07/14 11:13:54;;;;;;;5.05;2.95;;;;;;;;;;4974313;28;20065;-61
2023/07/14 11:16:24;;;;;;;4.60;2.25;;;;;;;;;;4981914;28;20042;-61
2023/07/14 11:18:56;;;;;;;4.95;3.17;;;;;;;;;;4980528;28;20042;-61
2023/07/14 11:21:51;;;;;;;7.70;3.72;;;;;;;;;;4973176;28;20056;-61
2023/07/14 11:24:19;;;;;;;8.40;3.20;;;;;;;;;;4998015;28;20788;-61
2023/07/14 11:27:17;;;;;;;4.90;3.03;;;;;;;;;;4980021;28;20141;-61
2023/07/14 11:29:54;;;;;;;3.53;2.65;;;;;;;;;;4998394;28;20289;-61
2023/07/14 11:32:22;;;;;;;4.55;2.65;;;;;;;;;;4977643;28;20048;-61
2023/07/14 11:34:56;;;;;;;6.25;3.38;;;;;;;;;;4962675;28;20407;-61
2023/07/14 11:37:25;;;;;;;6.70;2.97;;;;;;;;;;4984402;28;20042;-61
2023/07/14 11:39:53;;;;;;;4.90;3.00;;;;;;;;;;4965418;28;20610;-61
2023/07/14 11:42:26;;;;;;;6.07;3.10;;;;;;;;;;4981368;28;20162;-62
2023/07/14 11:44:53;;;;;;;7.95;3.80;;;;;;;;;;4975931;28;20049;-61
2023/07/14 11:47:21;;;;;;;3.78;2.80;;;;;;;;;;4985030;28;20074;-62
2023/07/14 11:49:51;;;;;;;5.68;3.30;;;;;;;;;;4974169;28;20035;-62
2023/07/14 11:52:25;;;;;;;6.43;2.80;;;;;;;;;;4972081;28;20121;-62
2023/07/14 11:55:06;;;;;;;5.07;2.80;;;;;;;;;;4981861;28;20042;-61
2023/07/14 11:57:47;;;;;;;6.47;3.22;;;;;;;;;;4976439;28;20049;-61
2023/07/14 12:00:13;;;;;;;6.85;3.03;;;;;;;;;;4975967;28;20043;-61
2023/07/14 12:02:50;;;;;;;4.45;2.67;;;;;;;;;;4990491;28;20140;-61
2023/07/14 12:05:19;;;;;;;8.00;3.45;;;;;;;;;;4984615;28;20117;-62
2023/07/14 12:08:03;;;;;;;5.60;3.30;;;;;;;;;;4981119;28;20048;-61
2023/07/14 12:10:39;;;;;;;5.68;2.97;;;;;;;;;;4985030;28;20122;-61
2023/07/14 12:13:17;;;;;;;6.38;3.42;;;;;;;;;;4984335;28;20490;-61
2023/07/14 12:15:44;;;;;;;7.65;3.47;;;;;;;;;;4984344;28;20144;-62
2023/07/14 12:18:37;;;;;;;6.97;3.55;;;;;;;;;;4983249;28;20056;-61
2023/07/14 12:21:03;;;;;;;;;;;;;;;;;;4978119;28;20051;-61
2023/07/14 12:23:29;;;;;;;5.22;3.13;;;;;;;;;;4968129;28;20308;-61
2023/07/14 12:26:00;;;;;;;5.57;3.70;;;;;;;;;;4983720;28;20170;-62
2023/07/14 12:28:30;;;;;;;9.35;3.75;;;;;;;;;;4981687;28;20431;-62
2023/07/14 12:31:03;;;;;;;7.80;3.45;;;;;;;;;;4976733;28;20532;-61
2023/07/14 12:33:29;;;;;;;5.22;3.33;;;;;;;;;;4982716;28;20039;-61
2023/07/14 12:35:56;;;;;;;4.20;2.97;;;;;;;;;;4981405;28;20046;-61
2023/07/14 12:38:23;;;;;;;6.88;3.35;;;;;;;;;;4978751;28;20049;-62
2023/07/14 12:40:51;;;;;;;9.43;3.47;;;;;;;;;;4975360;28;20058;-61
2023/07/14 12:43:23;;;;;;;7.90;3.92;;;;;;;;;;4980796;28;20452;-61
2023/07/14 12:45:50;;;;;;;7.65;4.47;;;;;;;;;;4974786;28;20039;-61
2023/07/14 12:48:16;;;;;;;8.48;4.07;;;;;;;;;;4975358;28;20049;-61
2023/07/14 12:50:44;;;;;;;10.55;3.97;;;;;;;;;;4985286;28;20038;-61
2023/07/14 12:53:15;;;;;;;8.52;3.67;;;;;;;;;;4981641;28;20070;-61
2023/07/14 12:55:41;;;;;;;5.35;3.55;;;;;;;;;;4977270;28;20043;-61
2023/07/14 12:58:12;;;;;;;5.30;3.42;;;;;;;;;;4979057;28;20468;-61
2023/07/14 13:00:38;;;;;;;8.95;4.75;;;;;;;;;;4980713;28;20057;-61
2023/07/14 13:03:09;;;;;;;6.20;4.20;;;;;;;;;;4984875;28;20054;-61
2023/07/14 13:05:36;;;;;;;8.90;4.18;;;;;;;;;;4981024;28;20050;-61
2023/07/14 13:08:04;;;;;;;11.68;3.78;;;;;;;;;;4993769;28;20124;-60
2023/07/14 13:10:39;;;;;;;7.75;4.18;;;;;;;;;;4971477;28;20246;-60
2023/07/14 13:13:07;;;;;;;8.30;4.70;;;;;;;;;;4976216;28;20045;-61
2023/07/14 13:15:34;;;;;;;6.07;3.38;;;;;;;;;;4979745;28;20042;-62
2023/07/14 13:18:09;;;;;;;8.57;4.47;;;;;;;;;;4976611;28;20048;-61
2023/07/14 13:20:37;;;;;;;9.50;4.10;;;;;;;;;;4991763;28;20547;-62
2023/07/14 13:23:10;;;;;;;4.65;3.58;;;;;;;;;;4975697;28;20034;-62
2023/07/14 13:25:36;;;;;;;;;;;;;;;;;;4974250;28;20508;-61
2023/07/14 13:28:17;;;;;;;7.30;3.97;;;;;;;;;;4972699;28;19980;-62
2023/07/14 13:30:45;;;;;;;7.78;4.25;;;;;;;;;;4970876;28;20038;-61
2023/07/14 13:33:14;;;;;;;6.80;3.88;;;;;;;;;;4983980;28;20076;-61
2023/07/14 13:35:53;;;;;;;6.57;3.90;;;;;;;;;;4973577;28;20035;-62
2023/07/14 13:38:19;;;;;;;6.60;4.40;;;;;;;;;;4980094;28;20065;-62
2023/07/14 13:40:50;;;;;;;7.63;4.25;;;;;;;;;;4976180;28;20042;-62
2023/07/14 13:43:18;;;;;;;7.80;4.00;;;;;;;;;;4976716;28;20125;-62
2023/07/14 13:45:44;;;;;;;7.20;4.22;;;;;;;;;;4982689;28;20057;-61
2023/07/14 13:48:31;;;;;;;6.55;4.50;;;;;;;;;;4977899;28;20035;-62
2023/07/14 13:50:57;;;;;;;10.73;4.45;;;;;;;;;;4991443;28;20112;-62
2023/07/14 13:53:23;;;;;;;7.18;4.65;;;;;;;;;;4977389;28;20043;-62
2023/07/14 13:55:49;;;;;;;6.85;4.53;;;;;;;;;;4976261;28;20492;-61
2023/07/14 13:58:16;;;;;;;9.25;4.93;;;;;;;;;;4975282;28;20038;-62
2023/07/14 14:00:42;;;;;;;6.55;3.88;;;;;;;;;;4991971;28;20058;-62
2023/07/14 14:03:09;;;;;;;5.53;4.35;;;;;;;;;;4985426;28;20049;-62
2023/07/14 14:05:39;;;;;;;6.78;4.38;;;;;;;;;;4980972;28;20130;-62
2023/07/14 14:08:09;;;;;;;5.25;3.85;;;;;;;;;;4977740;28;20034;-62
2023/07/14 14:10:35;;;;;;;10.55;4.78;;;;;;;;;;4985217;28;20030;-62
2023/07/14 14:13:04;;;;;;;8.40;4.25;;;;;;;;;;4983669;28;20491;-62
2023/07/14 14:15:32;;;;;;;9.00;4.70;;;;;;;;;;4973105;28;20069;-62
2023/07/14 14:18:01;;;;;;;9.38;5.22;;;;;;;;;;4978060;28;20053;-62
2023/07/14 14:20:29;;;;;;;6.95;4.28;;;;;;;;;;4985263;28;20053;-62
2023/07/14 14:22:56;;;;;;;11.00;4.90;;;;;;;;;;4980160;28;20487;-62
2023/07/14 14:25:23;;;;;;;10.98;5.15;;;;;;;;;;4978621;28;20031;-62
2023/07/14 14:27:51;;;;;;;21.33;5.38;;;23.10;86.10;;;;;;4981324;28;20393;-62
2023/07/14 14:30:19;;;;;;;8.57;4.45;;;25.10;77.30;;;;;;4980761;28;20582;-62
2023/07/14 14:32:48;;;;;;;5.82;3.75;;;25.00;76.90;;;;;;4974717;28;20456;-62
2023/07/14 14:35:33;;;;;;;7.18;4.28;;;25.00;76.90;;;;;;4973825;28;20160;-62
2023/07/14 14:38:08;;;;;;;7.32;4.60;;;25.00;77.00;;;;;;4977952;28;20073;-62
2023/07/14 14:40:34;;;;;;;5.47;3.83;;;24.90;77.00;;;;;;4985596;28;20100;-62
2023/07/14 14:43:10;;;;;;;7.70;4.88;;;24.90;77.20;;;;;;4978586;28;20049;-62